Airfield :







YOU CAN JOIN US ON...

 
LOGIN :

Register | Disclaimer

   EN    FR    IT 

 









Legend :    VFR   Marginal VFR   IFR   Intensive IFR   Very Intensive IFR
Visi :
Ceiling :
>= 8 km
>= 3000ft
5 to 8 km
1000 to 3000 ft
1500m to 5 km
500 to 1000 ft
800 to 1500m
200 to 500 ft
< 800m
< 200 ft
Symbols :   Thunderstorms  Fog  Heavy snow  Heavy precipitations  Wind > 20 kt






- Airport Elevation : 74 ft
- IATA code : STX


TISX - Henri E Rohlsen

CURRENT METAR :
  • 281053Z AUTO 36005KT 10SM SCT050 22/20 A3005 RMK AO2 SLP173 T02170200

EXPIRED METARs :
  • 280953Z AUTO 04004KT 10SM CLR 22/20 A3003 RMK AO2 SLP166 T02170200

TAF TISX
Valid from the 28 at 12:00 until the 29 at 12:00 UTC


281139Z 2812/2912 05005KT P6SM VCSH SCT025 BKN050
FM281430 10012KT P6SM FEW030 SCT050
FM282200 07009KT P6SM SCT030
FM290400 05005KT P6SM VCSH SCT022 SCT040



MET'MAP, your aeronautical weather chart ! - Copyright ORBIFLY December 2007 - Disclaimer

ORBIFLY MET'MAP TEAM :

Programming & Development : Alexandra Zaïnal
Concept & original design : Baudouin d'Aumeries
Assistance for programming : Marc-Olivier Méhu
Technical & hardware support : Manuel Goepfert

Contact : metmap@orbifly.com




SOURCES & CREDITS :

   NOAA